createdAt,value
2018-02-18T00:00:29.235Z,-1.88
2018-02-18T00:01:31.728Z,-1.73
2018-02-18T00:02:34.195Z,-1.77
2018-02-18T00:03:36.668Z,-1.92
2018-02-18T00:04:39.155Z,-1.98
2018-02-18T00:05:41.678Z,-2.07
2018-02-18T00:06:44.168Z,-2.12
2018-02-18T00:07:46.643Z,-2.15
2018-02-18T00:08:49.142Z,-2.18
2018-02-18T00:09:51.633Z,-2.13
2018-02-18T00:10:54.140Z,-2.15
2018-02-18T00:11:56.623Z,-2.12
2018-02-18T00:12:59.096Z,-2.09
2018-02-18T00:14:02.090Z,-2.07
2018-02-18T00:15:09.456Z,-2.07
2018-02-18T00:16:11.979Z,-2.03
2018-02-18T00:17:14.464Z,-2.02
2018-02-18T00:18:16.935Z,-1.98
2018-02-18T00:19:19.423Z,-1.73
2018-02-18T00:20:21.904Z,-1.69
2018-02-18T00:21:24.406Z,-1.83
2018-02-18T00:22:26.898Z,-1.83
2018-02-18T00:23:29.391Z,-1.74
2018-02-18T00:24:31.887Z,-1.73
2018-02-18T00:25:34.367Z,-1.74
2018-02-18T00:26:36.871Z,-1.56
2018-02-18T00:27:39.351Z,-1.64
2018-02-18T00:28:41.841Z,-1.74
2018-02-18T00:29:44.334Z,-1.70
2018-02-18T00:30:46.811Z,-1.76
2018-02-18T00:31:49.321Z,-1.60
2018-02-18T00:32:51.809Z,-1.63
2018-02-18T00:33:54.294Z,-1.57
2018-02-18T00:34:56.771Z,-1.52
2018-02-18T00:35:59.244Z,-1.59
2018-02-18T00:37:01.743Z,-1.68
2018-02-18T00:38:04.242Z,-1.66
2018-02-18T00:39:06.733Z,-1.67
2018-02-18T00:40:09.213Z,-1.67
2018-02-18T00:41:11.702Z,-1.57
2018-02-18T00:42:14.219Z,-1.66
2018-02-18T00:43:16.711Z,-1.69
2018-02-18T00:44:19.232Z,-1.59
2018-02-18T00:45:21.719Z,-1.76
2018-02-18T00:46:24.205Z,-1.73
2018-02-18T00:47:26.698Z,-1.78
2018-02-18T00:48:29.190Z,-1.76
2018-02-18T00:49:31.685Z,-1.66
2018-02-18T00:50:34.187Z,-1.64
2018-02-18T00:51:36.667Z,-1.54
2018-02-18T00:52:39.185Z,-1.50
2018-02-18T00:53:41.663Z,-1.53
2018-02-18T00:54:44.154Z,-1.62
2018-02-18T00:55:46.656Z,-1.72
2018-02-18T00:56:49.158Z,-1.58
2018-02-18T00:57:51.647Z,-1.60
2018-02-18T00:58:54.128Z,-1.63
2018-02-18T00:59:56.599Z,-1.71
2018-02-18T01:00:59.085Z,-1.74
2018-02-18T01:02:01.602Z,-1.76
2018-02-18T01:03:04.099Z,-1.72
2018-02-18T01:04:06.602Z,-1.71
2018-02-18T01:05:09.098Z,-1.60
2018-02-18T01:06:11.714Z,-1.50
2018-02-18T01:07:14.212Z,-1.50
2018-02-18T01:08:16.710Z,-1.51
2018-02-18T01:09:19.181Z,-1.33
2018-02-18T01:10:21.673Z,-1.39
2018-02-18T01:11:24.159Z,-1.39
2018-02-18T01:12:26.641Z,-1.36
2018-02-18T01:13:29.141Z,-1.23
2018-02-18T01:14:31.629Z,-1.19
2018-02-18T01:15:34.126Z,-1.11
2018-02-18T01:16:36.625Z,-1.12
2018-02-18T01:17:39.110Z,-1.02
2018-02-18T01:18:41.612Z,-0.95
2018-02-18T01:19:44.123Z,-0.82
2018-02-18T01:20:46.611Z,-0.82
2018-02-18T01:21:49.106Z,-0.72
2018-02-18T01:22:51.593Z,-0.74
2018-02-18T01:23:54.103Z,-0.75
2018-02-18T01:24:56.584Z,-0.80
2018-02-18T01:25:59.061Z,-0.88
2018-02-18T01:27:01.577Z,-0.88
2018-02-18T01:28:04.071Z,-0.75
2018-02-18T01:29:06.561Z,-0.75
2018-02-18T01:30:09.053Z,-0.78
2018-02-18T01:31:11.524Z,-0.79
2018-02-18T01:32:14.022Z,-0.85
2018-02-18T01:33:16.536Z,-0.80
2018-02-18T01:34:19.031Z,-0.91
2018-02-18T01:35:21.520Z,-0.94
2018-02-18T01:36:24.000Z,-0.97
2018-02-18T01:37:26.474Z,-0.90
2018-02-18T01:38:28.960Z,-1.08
2018-02-18T01:39:31.471Z,-0.88
2018-02-18T01:40:33.947Z,-0.87
2018-02-18T01:41:36.423Z,-0.98
2018-02-18T01:42:38.918Z,-1.01
2018-02-18T01:43:41.421Z,-0.96
2018-02-18T01:44:43.940Z,-0.90
2018-02-18T01:45:46.434Z,-0.94
2018-02-18T01:46:48.927Z,-0.87
2018-02-18T01:47:51.417Z,-0.88
2018-02-18T01:48:53.913Z,-0.94
2018-02-18T01:49:56.434Z,-1.00
2018-02-18T01:50:58.916Z,-1.01
2018-02-18T01:52:01.418Z,-0.96
2018-02-18T01:53:03.906Z,-0.77
2018-02-18T01:54:06.397Z,-0.78
2018-02-18T01:55:08.900Z,-0.79
2018-02-18T01:56:11.379Z,-0.81
2018-02-18T01:57:13.855Z,-0.86
2018-02-18T01:58:16.345Z,-0.77
2018-02-18T01:59:18.846Z,-0.77
2018-02-18T02:00:21.343Z,-0.83
2018-02-18T02:01:23.833Z,-0.97
2018-02-18T02:02:26.324Z,-1.02
2018-02-18T02:03:28.806Z,-0.93
2018-02-18T02:04:31.299Z,-0.99
2018-02-18T02:05:33.798Z,-1.04
2018-02-18T02:06:36.290Z,-1.01
2018-02-18T02:07:38.769Z,-1.07
2018-02-18T02:08:41.269Z,-1.10
2018-02-18T02:09:43.757Z,-1.09
2018-02-18T02:10:46.297Z,-1.05
2018-02-18T02:11:48.793Z,-1.14
2018-02-18T02:12:51.290Z,-1.09
2018-02-18T02:13:53.773Z,-1.11
2018-02-18T02:14:56.258Z,-0.98
2018-02-18T02:15:58.786Z,-1.01
2018-02-18T02:17:01.278Z,-0.99
2018-02-18T02:18:03.760Z,-0.92
2018-02-18T02:19:06.240Z,-0.81
2018-02-18T02:20:08.774Z,-0.81
2018-02-18T02:21:11.283Z,-0.77
2018-02-18T02:22:13.777Z,-0.70
2018-02-18T02:23:16.256Z,-0.82
2018-02-18T02:24:18.762Z,-0.87
2018-02-18T02:25:21.254Z,-0.88
2018-02-18T02:26:23.787Z,-0.74
2018-02-18T02:27:26.263Z,-0.73
2018-02-18T02:28:28.777Z,-0.71
2018-02-18T02:29:31.259Z,-0.69
2018-02-18T02:30:33.748Z,-0.70
2018-02-18T02:31:36.270Z,-0.71
2018-02-18T02:32:38.769Z,-0.54
2018-02-18T02:33:41.250Z,-0.53
2018-02-18T02:34:43.725Z,-0.52
2018-02-18T02:35:46.220Z,-0.71
2018-02-18T02:36:48.712Z,-0.58
2018-02-18T02:37:51.191Z,-0.58
2018-02-18T02:38:53.664Z,-0.61
2018-02-18T02:39:56.141Z,-0.61
2018-02-18T02:40:58.665Z,-0.67
2018-02-18T02:42:01.183Z,-0.47
2018-02-18T02:43:03.667Z,-0.48
2018-02-18T02:44:06.139Z,-0.52
2018-02-18T02:45:08.634Z,-0.61
2018-02-18T02:46:11.121Z,-0.61
2018-02-18T02:47:13.629Z,-0.67
2018-02-18T02:48:16.122Z,-0.70
2018-02-18T02:49:19.230Z,-0.56
2018-02-18T02:50:21.717Z,-0.58
2018-02-18T02:51:24.196Z,-0.63
2018-02-18T02:52:27.537Z,-0.60
2018-02-18T02:53:30.037Z,-0.64
2018-02-18T02:54:32.516Z,-0.54
2018-02-18T02:55:34.992Z,-0.58
2018-02-18T02:56:37.483Z,-0.55
2018-02-18T02:57:39.994Z,-0.57
2018-02-18T02:58:42.503Z,-0.47
2018-02-18T02:59:45.004Z,-0.39
2018-02-18T03:00:47.491Z,-0.40
2018-02-18T03:01:49.979Z,-0.49
2018-02-18T03:02:52.498Z,-0.48
2018-02-18T03:03:54.994Z,-0.40
2018-02-18T03:04:57.498Z,-0.48
2018-02-18T03:05:59.994Z,-0.53
2018-02-18T03:07:02.506Z,-0.43
2018-02-18T03:08:05.007Z,-0.55
2018-02-18T03:09:07.598Z,-0.75
2018-02-18T03:10:10.094Z,-0.74
2018-02-18T03:11:12.569Z,-0.74
2018-02-18T03:12:15.048Z,-0.70
2018-02-18T03:13:17.519Z,-0.72
2018-02-18T03:14:20.003Z,-0.73
2018-02-18T03:15:22.484Z,-0.74
2018-02-18T03:16:24.989Z,-0.81
2018-02-18T03:17:27.484Z,-0.74
2018-02-18T03:18:30.004Z,-0.68
2018-02-18T03:19:32.481Z,-0.51
2018-02-18T03:20:34.981Z,-0.68
2018-02-18T03:21:37.468Z,-0.68
2018-02-18T03:22:39.966Z,-0.79
2018-02-18T03:23:42.457Z,-0.89
2018-02-18T03:24:44.940Z,-0.89
2018-02-18T03:25:47.416Z,-0.87
2018-02-18T03:26:49.905Z,-0.95
2018-02-18T03:27:52.379Z,-0.93
2018-02-18T03:28:54.885Z,-0.86
2018-02-18T03:29:57.371Z,-0.82
2018-02-18T03:30:59.863Z,-0.72
2018-02-18T03:32:02.356Z,-0.67
2018-02-18T03:33:04.845Z,-0.69
2018-02-18T03:34:07.319Z,-0.74
2018-02-18T03:35:09.800Z,-0.67
2018-02-18T03:36:12.288Z,-0.68
2018-02-18T03:37:14.781Z,-0.86
2018-02-18T03:38:17.281Z,-0.83
2018-02-18T03:39:19.758Z,-0.79
2018-02-18T03:40:22.235Z,-0.73
2018-02-18T03:41:24.720Z,-0.66
2018-02-18T03:42:27.196Z,-0.72
2018-02-18T03:43:29.691Z,-0.83
2018-02-18T03:44:32.185Z,-0.96
2018-02-18T03:45:34.682Z,-1.02
2018-02-18T03:46:37.159Z,-1.00
2018-02-18T03:47:39.651Z,-1.02
2018-02-18T03:48:42.132Z,-0.90
2018-02-18T03:49:44.625Z,-1.02
2018-02-18T03:50:47.108Z,-0.94
2018-02-18T03:51:49.587Z,-1.08
2018-02-18T03:52:52.072Z,-0.97
2018-02-18T03:53:54.547Z,-0.90
2018-02-18T03:54:57.046Z,-1.11
2018-02-18T03:55:59.519Z,-1.29
2018-02-18T03:57:02.013Z,-1.27
2018-02-18T03:58:04.505Z,-1.21
2018-02-18T03:59:06.997Z,-1.12
2018-02-18T04:00:09.494Z,-1.18
2018-02-18T04:01:11.987Z,-1.17
2018-02-18T04:02:14.459Z,-1.08
2018-02-18T04:03:16.957Z,-1.04
2018-02-18T04:04:19.456Z,-1.02
2018-02-18T04:05:21.926Z,-1.00
2018-02-18T04:06:24.412Z,-1.12
2018-02-18T04:07:26.897Z,-1.24
2018-02-18T04:08:29.371Z,-1.18
2018-02-18T04:09:31.842Z,-1.18
2018-02-18T04:10:34.319Z,-1.17
2018-02-18T04:11:36.811Z,-1.14
2018-02-18T04:12:39.287Z,-1.30
2018-02-18T04:13:42.177Z,-1.34
2018-02-18T04:14:44.665Z,-1.39
2018-02-18T04:15:47.157Z,-1.21
2018-02-18T04:16:49.652Z,-1.01
2018-02-18T04:17:52.134Z,-1.16
2018-02-18T04:18:54.626Z,-1.10
2018-02-18T04:19:57.111Z,-1.12
2018-02-18T04:20:59.588Z,-1.20
2018-02-18T04:22:02.067Z,-1.27
2018-02-18T04:23:04.548Z,-1.11
2018-02-18T04:24:07.028Z,-1.15
2018-02-18T04:25:09.495Z,-1.06
2018-02-18T04:26:11.981Z,-1.18
2018-02-18T04:27:14.480Z,-1.10
2018-02-18T04:28:16.971Z,-0.98
2018-02-18T04:29:19.504Z,-1.08
2018-02-18T04:30:21.976Z,-1.06
2018-02-18T04:31:24.451Z,-1.10
2018-02-18T04:32:26.973Z,-1.19
2018-02-18T04:33:29.483Z,-1.16
2018-02-18T04:34:31.982Z,-1.43
2018-02-18T04:35:34.459Z,-1.41
2018-02-18T04:36:36.940Z,-1.31
2018-02-18T04:37:39.416Z,-1.17
2018-02-18T04:38:41.905Z,-1.13
2018-02-18T04:39:44.379Z,-1.29
2018-02-18T04:40:46.870Z,-1.41
2018-02-18T04:41:49.347Z,-1.21
2018-02-18T04:42:51.841Z,-1.21
2018-02-18T04:43:54.335Z,-1.35
2018-02-18T04:44:56.825Z,-1.36
2018-02-18T04:45:59.305Z,-1.27
2018-02-18T04:47:01.802Z,-1.23
2018-02-18T04:48:04.306Z,-1.23
2018-02-18T04:49:06.783Z,-1.27
2018-02-18T04:50:09.277Z,-1.14
2018-02-18T04:51:11.768Z,-1.24
2018-02-18T04:52:14.270Z,-1.33
2018-02-18T04:53:16.757Z,-1.33
2018-02-18T04:54:19.248Z,-1.22
2018-02-18T04:55:21.741Z,-1.21
2018-02-18T04:56:24.264Z,-1.20
2018-02-18T04:57:26.747Z,-1.38
2018-02-18T04:58:29.242Z,-1.38
2018-02-18T04:59:31.738Z,-1.26
2018-02-18T05:00:34.233Z,-1.24
2018-02-18T05:01:36.725Z,-1.10
2018-02-18T05:02:39.195Z,-1.21
2018-02-18T05:03:41.698Z,-1.07
2018-02-18T05:04:44.172Z,-0.99
2018-02-18T05:05:46.647Z,-1.10
2018-02-18T05:06:49.126Z,-1.24
2018-02-18T05:07:51.613Z,-1.28
2018-02-18T05:08:54.086Z,-1.24
2018-02-18T05:09:56.563Z,-1.25
2018-02-18T05:10:59.043Z,-1.40
2018-02-18T05:12:01.538Z,-1.44
2018-02-18T05:13:04.011Z,-1.40
2018-02-18T05:14:06.484Z,-1.42
2018-02-18T05:15:08.976Z,-1.33
2018-02-18T05:16:11.466Z,-1.24
2018-02-18T05:17:13.962Z,-1.48
2018-02-18T05:18:16.455Z,-1.34
2018-02-18T05:19:18.948Z,-1.45
2018-02-18T05:20:21.444Z,-1.37
2018-02-18T05:21:23.931Z,-1.36
2018-02-18T05:22:26.403Z,-1.39
2018-02-18T05:23:28.902Z,-1.20
2018-02-18T05:24:31.370Z,-1.14
2018-02-18T05:25:33.878Z,-1.12
2018-02-18T05:26:36.369Z,-1.14
2018-02-18T05:27:38.847Z,-1.18
2018-02-18T05:28:41.331Z,-1.14
2018-02-18T05:29:43.835Z,-1.31
2018-02-18T05:30:46.332Z,-1.38
2018-02-18T05:31:48.823Z,-1.30
2018-02-18T05:32:51.303Z,-1.28
2018-02-18T05:33:53.794Z,-1.29
2018-02-18T05:34:56.284Z,-1.37
2018-02-18T05:35:58.760Z,-1.29
2018-02-18T05:37:01.239Z,-1.30
2018-02-18T05:38:03.731Z,-1.32
2018-02-18T05:39:06.216Z,-1.33
2018-02-18T05:40:08.694Z,-1.27
2018-02-18T05:41:11.185Z,-1.15
2018-02-18T05:42:13.659Z,-1.15
2018-02-18T05:43:16.136Z,-1.07
2018-02-18T05:44:18.640Z,-1.15
2018-02-18T05:45:21.137Z,-1.15
2018-02-18T05:46:23.644Z,-1.17
2018-02-18T05:47:26.120Z,-1.13
2018-02-18T05:48:28.592Z,-1.21
2018-02-18T05:49:31.086Z,-1.36
2018-02-18T05:50:33.563Z,-1.19
2018-02-18T05:51:36.038Z,-1.20
2018-02-18T05:52:38.531Z,-1.21
2018-02-18T05:53:41.021Z,-1.24
2018-02-18T05:54:43.503Z,-1.26
2018-02-18T05:55:45.990Z,-1.24
2018-02-18T05:56:48.479Z,-1.22
2018-02-18T05:57:50.973Z,-1.27
2018-02-18T05:58:53.486Z,-1.14
2018-02-18T05:59:55.965Z,-1.23
2018-02-18T06:00:58.481Z,-1.29
2018-02-18T06:02:00.960Z,-1.15
2018-02-18T06:03:03.457Z,-1.16
2018-02-18T06:04:05.935Z,-1.27
2018-02-18T06:05:08.425Z,-1.33
2018-02-18T06:06:10.906Z,-1.26
2018-02-18T06:07:13.406Z,-1.23
2018-02-18T06:08:15.883Z,-1.30
2018-02-18T06:09:18.367Z,-1.28
2018-02-18T06:10:20.862Z,-1.25
2018-02-18T06:11:23.335Z,-1.22
2018-02-18T06:12:25.815Z,-1.26
2018-02-18T06:13:28.308Z,-1.18
2018-02-18T06:14:30.797Z,-1.22
2018-02-18T06:15:33.286Z,-1.26
2018-02-18T06:16:35.771Z,-1.30
2018-02-18T06:17:38.250Z,-1.25
2018-02-18T06:18:40.753Z,-1.26
2018-02-18T06:19:43.235Z,-1.30
2018-02-18T06:20:45.715Z,-1.33
2018-02-18T06:21:48.224Z,-1.25
2018-02-18T06:22:50.694Z,-1.34
2018-02-18T06:23:53.189Z,-1.39
2018-02-18T06:24:55.677Z,-1.43
2018-02-18T06:25:58.181Z,-1.28
2018-02-18T06:27:00.671Z,-1.34
2018-02-18T06:28:03.161Z,-1.32
2018-02-18T06:29:05.635Z,-1.32
2018-02-18T06:30:08.143Z,-1.24
2018-02-18T06:31:10.616Z,-1.21
2018-02-18T06:32:13.093Z,-1.31
2018-02-18T06:33:15.581Z,-1.32
2018-02-18T06:34:18.101Z,-1.18
2018-02-18T06:35:20.591Z,-1.04
2018-02-18T06:36:23.093Z,-1.10
2018-02-18T06:37:25.579Z,-1.13
2018-02-18T06:38:28.073Z,-1.21
2018-02-18T06:39:30.590Z,-1.13
2018-02-18T06:40:33.067Z,-1.15
2018-02-18T06:41:35.569Z,-1.07
2018-02-18T06:42:38.048Z,-1.08
2018-02-18T06:43:40.519Z,-1.20
2018-02-18T06:44:43.023Z,-1.23
2018-02-18T06:45:45.502Z,-1.23
2018-02-18T06:46:48.045Z,-1.25
2018-02-18T06:47:50.519Z,-1.20
2018-02-18T06:48:52.993Z,-1.29
2018-02-18T06:49:55.489Z,-1.10
2018-02-18T06:50:57.978Z,-1.12
2018-02-18T06:52:00.515Z,-1.06
2018-02-18T06:53:03.024Z,-1.11
2018-02-18T06:54:05.526Z,-1.18
2018-02-18T06:55:08.948Z,-1.13
2018-02-18T06:56:11.428Z,-1.14
2018-02-18T06:57:13.903Z,-1.03
2018-02-18T06:58:16.414Z,-0.99
2018-02-18T06:59:18.899Z,-1.01
2018-02-18T07:00:21.400Z,-1.02
2018-02-18T07:01:23.894Z,-1.03
2018-02-18T07:02:26.376Z,-1.12
2018-02-18T07:03:28.865Z,-1.11
2018-02-18T07:04:31.351Z,-1.04
2018-02-18T07:05:33.844Z,-1.11
2018-02-18T07:06:36.319Z,-0.86
2018-02-18T07:07:38.799Z,-0.91
2018-02-18T07:08:41.290Z,-0.89
2018-02-18T07:10:45.565Z,-0.86
2018-02-18T07:11:48.058Z,-0.76
2018-02-18T07:12:50.550Z,-0.78
2018-02-18T07:13:53.028Z,-0.66
2018-02-18T07:14:55.515Z,-0.72
2018-02-18T07:15:58.026Z,-0.75
2018-02-18T07:17:00.518Z,-0.79
2018-02-18T07:18:03.011Z,-0.80
2018-02-18T07:19:05.483Z,-0.69
2018-02-18T07:20:07.974Z,-0.67
2018-02-18T07:21:10.471Z,-0.68
2018-02-18T07:22:12.961Z,-0.58
2018-02-18T07:23:15.455Z,-0.54
2018-02-18T07:24:18.067Z,-0.52
2018-02-18T07:25:20.567Z,-0.57
2018-02-18T07:26:23.093Z,-0.65
2018-02-18T07:27:25.576Z,-0.56
2018-02-18T07:28:28.451Z,-0.57
2018-02-18T07:29:30.932Z,-0.55
2018-02-18T07:30:33.448Z,-0.46
2018-02-18T07:31:35.961Z,-0.36
2018-02-18T07:32:38.472Z,-0.35
2018-02-18T07:33:40.989Z,-0.23
2018-02-18T07:34:43.487Z,-0.40
2018-02-18T07:35:45.974Z,-0.20
2018-02-18T07:36:48.522Z,-0.17
2018-02-18T07:37:51.018Z,-0.22
2018-02-18T07:38:53.514Z,-0.22
2018-02-18T07:39:56.009Z,-0.17
2018-02-18T07:40:58.489Z,-0.12
2018-02-18T07:42:00.990Z,-0.14
2018-02-18T07:43:03.494Z,-0.11
2018-02-18T07:44:05.993Z,-0.10
2018-02-18T07:45:08.470Z,-0.04
2018-02-18T07:46:10.955Z,0.06
2018-02-18T07:47:13.469Z,0.03
2018-02-18T07:48:15.992Z,0.08
2018-02-18T07:49:18.469Z,0.02
2018-02-18T07:50:20.955Z,0.15
2018-02-18T07:51:23.438Z,0.10
2018-02-18T07:52:26.024Z,0.24
2018-02-18T07:53:28.501Z,0.32
2018-02-18T07:54:30.987Z,0.32
2018-02-18T07:55:33.463Z,0.30
2018-02-18T07:56:35.951Z,0.49
2018-02-18T07:57:38.447Z,0.65
2018-02-18T07:58:41.767Z,0.68
2018-02-18T07:59:44.247Z,0.96
2018-02-18T08:00:46.757Z,1.29
2018-02-18T08:01:49.216Z,1.78
2018-02-18T08:02:51.708Z,2.30
2018-02-18T08:03:54.176Z,2.98
2018-02-18T08:04:56.647Z,3.33
2018-02-18T08:05:59.142Z,3.31
2018-02-18T08:07:01.644Z,3.73
2018-02-18T08:08:04.141Z,4.38
2018-02-18T08:09:06.705Z,4.43
2018-02-18T08:10:09.170Z,4.45
2018-02-18T08:11:11.666Z,5.05
2018-02-18T08:12:14.143Z,5.48
2018-02-18T08:13:16.631Z,5.33
2018-02-18T08:14:19.138Z,5.12
2018-02-18T08:15:21.603Z,5.63
2018-02-18T08:16:24.218Z,5.57
2018-02-18T08:17:26.716Z,5.32
2018-02-18T08:18:29.221Z,5.23
2018-02-18T08:19:31.716Z,4.86
2018-02-18T08:20:34.205Z,4.99
2018-02-18T08:21:36.680Z,5.17
2018-02-18T08:22:39.165Z,4.80
2018-02-18T08:23:41.668Z,5.30
2018-02-18T08:24:44.147Z,5.82
2018-02-18T08:25:46.629Z,5.41
2018-02-18T08:26:49.105Z,6.25
2018-02-18T08:27:51.571Z,6.21
2018-02-18T08:28:54.059Z,6.48
2018-02-18T08:29:56.574Z,7.35
2018-02-18T08:30:59.061Z,7.76
2018-02-18T08:32:01.545Z,8.03
2018-02-18T08:33:04.016Z,8.83
2018-02-18T08:34:06.521Z,8.49
2018-02-18T08:35:09.001Z,8.88
2018-02-18T08:36:11.471Z,8.74
2018-02-18T08:37:13.982Z,8.44
2018-02-18T08:38:16.465Z,8.88
2018-02-18T08:39:18.965Z,7.55
2018-02-18T08:40:21.453Z,8.14
2018-02-18T08:41:23.933Z,8.22
2018-02-18T08:42:26.401Z,8.86
2018-02-18T08:43:28.898Z,9.50
2018-02-18T08:44:31.409Z,9.21
2018-02-18T08:45:33.876Z,9.26
2018-02-18T08:46:36.357Z,9.92
2018-02-18T08:47:38.853Z,10.56
2018-02-18T08:48:41.328Z,10.12
2018-02-18T08:49:43.815Z,9.44
2018-02-18T08:50:46.305Z,10.21
2018-02-18T08:51:48.798Z,9.66
2018-02-18T08:52:51.276Z,9.57
2018-02-18T08:53:53.766Z,10.12
2018-02-18T08:54:56.276Z,9.54
2018-02-18T08:55:58.779Z,9.46
2018-02-18T08:57:01.251Z,10.47
2018-02-18T08:58:03.720Z,9.14
2018-02-18T08:59:06.195Z,9.01
2018-02-18T09:00:08.699Z,9.62
2018-02-18T09:01:11.186Z,9.55
2018-02-18T09:02:13.671Z,9.95
2018-02-18T09:03:16.171Z,8.80
2018-02-18T09:04:18.657Z,7.92
2018-02-18T09:05:21.182Z,7.97
2018-02-18T09:06:23.674Z,9.77
2018-02-18T09:07:26.135Z,9.90
2018-02-18T09:08:28.607Z,10.64
2018-02-18T09:09:31.092Z,10.27
2018-02-18T09:10:33.594Z,9.70
2018-02-18T09:11:36.109Z,9.27
2018-02-18T09:12:38.594Z,7.96
2018-02-18T09:13:41.093Z,9.40
2018-02-18T09:14:43.569Z,9.39
2018-02-18T09:15:46.059Z,9.50
2018-02-18T09:16:48.527Z,8.80
2018-02-18T09:17:50.991Z,9.42
2018-02-18T09:18:53.464Z,8.19
2018-02-18T09:19:55.953Z,9.37
2018-02-18T09:20:58.450Z,9.69
2018-02-18T09:22:00.924Z,8.57
2018-02-18T09:23:03.417Z,8.50
2018-02-18T09:24:05.884Z,7.91
2018-02-18T09:25:08.355Z,7.69
2018-02-18T09:26:10.868Z,8.14
2018-02-18T09:27:13.360Z,7.91
2018-02-18T09:28:15.831Z,9.29
2018-02-18T09:29:18.341Z,8.89
2018-02-18T09:30:20.842Z,9.94
2018-02-18T09:31:23.331Z,8.61
2018-02-18T09:32:25.816Z,7.95
2018-02-18T09:33:28.287Z,8.18
2018-02-18T09:34:30.766Z,8.15
2018-02-18T09:35:33.249Z,7.75
2018-02-18T09:36:35.753Z,7.73
2018-02-18T09:37:38.219Z,7.04
2018-02-18T09:38:40.701Z,6.40
2018-02-18T09:39:43.186Z,6.27
2018-02-18T09:40:45.736Z,7.40
2018-02-18T09:41:48.220Z,7.74
2018-02-18T09:42:50.691Z,7.83
2018-02-18T09:43:53.181Z,8.72
2018-02-18T09:44:55.665Z,8.49
2018-02-18T09:45:58.132Z,9.35
2018-02-18T09:47:00.639Z,8.13
2018-02-18T09:48:03.205Z,8.15
2018-02-18T09:49:05.689Z,8.33
2018-02-18T09:50:08.154Z,8.66
2018-02-18T09:51:10.624Z,9.29
2018-02-18T09:52:13.124Z,9.41
2018-02-18T09:53:15.634Z,9.40
2018-02-18T09:54:18.104Z,9.91
2018-02-18T09:55:20.575Z,8.58
2018-02-18T09:56:23.067Z,8.30
2018-02-18T09:57:25.598Z,8.62
2018-02-18T09:58:28.415Z,8.35
2018-02-18T09:59:30.885Z,8.61
2018-02-18T10:00:33.360Z,9.09
2018-02-18T10:01:35.858Z,9.33
2018-02-18T10:02:38.376Z,10.39
2018-02-18T10:03:40.847Z,10.42
2018-02-18T10:04:43.340Z,10.96
2018-02-18T10:05:45.807Z,9.98
2018-02-18T10:06:48.302Z,10.97
2018-02-18T10:07:50.813Z,9.01
2018-02-18T10:08:53.305Z,9.43
2018-02-18T10:09:55.784Z,10.62
2018-02-18T10:10:58.251Z,9.58
2018-02-18T10:12:00.738Z,9.88
2018-02-18T10:13:03.257Z,10.62
2018-02-18T10:14:05.770Z,11.35
2018-02-18T10:15:08.258Z,9.74
2018-02-18T10:16:10.733Z,10.30
2018-02-18T10:17:13.217Z,10.64
2018-02-18T10:18:15.717Z,9.95
2018-02-18T10:19:18.220Z,10.53
2018-02-18T10:20:20.776Z,9.58
2018-02-18T10:21:23.452Z,10.73
2018-02-18T10:22:25.953Z,11.23
2018-02-18T10:23:28.467Z,11.21
2018-02-18T10:24:30.953Z,11.26
2018-02-18T10:25:33.426Z,11.80
2018-02-18T10:26:35.919Z,11.66
2018-02-18T10:27:38.460Z,11.91
2018-02-18T10:28:41.165Z,11.60
2018-02-18T10:29:43.940Z,11.75
2018-02-18T10:30:46.425Z,12.71
2018-02-18T10:31:48.967Z,12.15
2018-02-18T10:32:51.407Z,11.86
2018-02-18T10:33:53.905Z,11.63
2018-02-18T10:34:56.395Z,12.22
2018-02-18T10:35:58.868Z,12.80
2018-02-18T10:37:01.372Z,11.22
2018-02-18T10:38:04.024Z,10.81
2018-02-18T10:39:06.540Z,11.32
2018-02-18T10:40:09.030Z,12.85
2018-02-18T10:41:11.524Z,12.93
2018-02-18T10:42:14.056Z,11.99
2018-02-18T10:43:16.541Z,12.33
2018-02-18T10:44:19.043Z,11.91
2018-02-18T10:45:21.531Z,12.38
2018-02-18T10:46:24.034Z,13.61
2018-02-18T10:47:26.522Z,13.18
2018-02-18T10:48:28.999Z,13.17
2018-02-18T10:49:31.507Z,13.43
2018-02-18T10:50:33.996Z,14.42
2018-02-18T10:51:36.504Z,12.75
2018-02-18T10:52:39.003Z,12.60
2018-02-18T10:53:41.522Z,12.43
2018-02-18T10:54:44.101Z,12.52
2018-02-18T10:55:46.572Z,13.22
2018-02-18T10:56:49.068Z,13.52
2018-02-18T10:57:51.597Z,13.92
2018-02-18T10:58:54.082Z,13.21
2018-02-18T10:59:56.608Z,13.52
2018-02-18T11:00:59.107Z,13.90
2018-02-18T11:02:01.629Z,14.47
2018-02-18T11:03:04.119Z,14.50
2018-02-18T11:04:06.591Z,13.58
2018-02-18T11:05:09.099Z,12.84
2018-02-18T11:06:11.567Z,12.88
2018-02-18T11:07:14.067Z,12.99
2018-02-18T11:08:16.548Z,12.06
2018-02-18T11:09:19.032Z,12.19
2018-02-18T11:10:21.546Z,11.32
2018-02-18T11:11:24.086Z,11.82
2018-02-18T11:12:26.582Z,11.10
2018-02-18T11:13:29.067Z,10.71
2018-02-18T11:14:31.535Z,10.72
2018-02-18T11:15:34.077Z,10.86
2018-02-18T11:16:36.580Z,11.74
2018-02-18T11:17:39.056Z,10.70
2018-02-18T11:18:41.547Z,11.89
2018-02-18T11:19:44.039Z,13.15
2018-02-18T11:20:46.571Z,12.61
2018-02-18T11:21:49.049Z,13.45
2018-02-18T11:22:51.555Z,14.11
2018-02-18T11:23:54.085Z,12.31
2018-02-18T11:24:56.616Z,12.79
2018-02-18T11:25:59.179Z,12.93
2018-02-18T11:27:01.648Z,13.05
2018-02-18T11:28:04.134Z,14.42
2018-02-18T11:29:06.616Z,14.09
2018-02-18T11:30:09.100Z,12.50
2018-02-18T11:31:11.596Z,14.27
2018-02-18T11:32:16.333Z,15.18
2018-02-18T11:33:18.823Z,15.97
2018-02-18T11:34:21.341Z,14.67
2018-02-18T11:35:23.819Z,14.51
2018-02-18T11:36:26.330Z,15.86
2018-02-18T11:37:28.817Z,16.56
2018-02-18T11:38:31.304Z,15.93
2018-02-18T11:39:33.802Z,15.11
2018-02-18T11:40:36.287Z,13.92
2018-02-18T11:41:41.574Z,14.26
2018-02-18T11:42:44.138Z,14.21
2018-02-18T11:43:46.665Z,14.47
2018-02-18T11:44:49.163Z,14.94
2018-02-18T11:45:51.637Z,14.64
2018-02-18T11:46:54.162Z,14.87
2018-02-18T11:47:56.649Z,13.04
2018-02-18T11:48:59.123Z,13.78
2018-02-18T11:50:01.595Z,13.99
2018-02-18T11:51:04.118Z,15.09
2018-02-18T11:52:06.943Z,16.13
2018-02-18T11:53:09.459Z,17.08
2018-02-18T11:54:11.978Z,15.49
2018-02-18T11:55:14.699Z,16.17
2018-02-18T11:56:17.244Z,17.77
2018-02-18T11:57:19.744Z,16.18
2018-02-18T11:58:22.221Z,15.95
2018-02-18T11:59:24.757Z,15.83
2018-02-18T12:00:27.235Z,14.71
2018-02-18T12:01:29.737Z,15.77
2018-02-18T12:02:32.236Z,17.24
2018-02-18T12:03:34.836Z,19.18
2018-02-18T12:04:37.826Z,19.28
2018-02-18T12:05:40.326Z,18.44
2018-02-18T12:06:42.808Z,17.47
2018-02-18T12:07:45.325Z,17.70
2018-02-18T12:08:47.807Z,16.50
2018-02-18T12:09:50.290Z,14.18
2018-02-18T12:10:52.957Z,14.37
2018-02-18T12:11:55.428Z,13.24
2018-02-18T12:12:57.941Z,12.28
2018-02-18T12:14:00.434Z,12.88
2018-02-18T12:15:02.905Z,12.35
2018-02-18T12:16:05.382Z,11.91
2018-02-18T12:17:07.945Z,12.01
2018-02-18T12:18:10.455Z,13.64
2018-02-18T12:19:12.937Z,13.88
2018-02-18T12:20:15.399Z,14.43
2018-02-18T12:21:17.918Z,13.73
2018-02-18T12:22:20.409Z,12.89
2018-02-18T12:23:22.926Z,13.68
2018-02-18T12:24:25.418Z,13.94
2018-02-18T12:25:27.910Z,13.07
2018-02-18T12:26:30.402Z,13.36
2018-02-18T12:27:32.868Z,13.85
2018-02-18T12:28:35.369Z,14.55
2018-02-18T12:29:37.859Z,15.00
2018-02-18T12:30:40.332Z,15.27
2018-02-18T12:31:42.858Z,16.64
2018-02-18T12:32:45.345Z,17.30
2018-02-18T12:33:47.844Z,15.79
2018-02-18T12:34:50.323Z,15.78
2018-02-18T12:35:52.799Z,16.77
2018-02-18T12:36:55.305Z,15.52
2018-02-18T12:37:58.165Z,15.14
2018-02-18T12:39:00.712Z,16.26
2018-02-18T12:40:03.205Z,17.41
2018-02-18T12:41:05.701Z,17.13
2018-02-18T12:42:08.187Z,17.71
2018-02-18T12:43:10.675Z,17.05
2018-02-18T12:44:13.184Z,18.07
2018-02-18T12:45:15.663Z,16.85
2018-02-18T12:46:18.139Z,16.59
2018-02-18T12:47:20.724Z,15.60
2018-02-18T12:48:23.187Z,16.74
2018-02-18T12:49:25.675Z,16.72
2018-02-18T12:50:28.152Z,17.36
2018-02-18T12:51:30.637Z,16.69
2018-02-18T12:52:33.196Z,16.42
2018-02-18T12:53:35.682Z,16.26
2018-02-18T12:54:38.242Z,16.17
2018-02-18T12:55:40.713Z,16.39
2018-02-18T12:56:43.220Z,16.26
2018-02-18T12:57:45.720Z,15.08
2018-02-18T12:58:48.219Z,16.27
2018-02-18T12:59:50.715Z,15.91
2018-02-18T13:00:53.211Z,15.90
2018-02-18T13:01:55.701Z,15.25
2018-02-18T13:02:58.171Z,14.72
2018-02-18T13:04:00.644Z,14.02
2018-02-18T13:05:03.143Z,13.57
2018-02-18T13:06:05.656Z,13.11
2018-02-18T13:07:08.204Z,13.99
2018-02-18T13:08:10.662Z,13.18
2018-02-18T13:09:13.139Z,14.53
2018-02-18T13:10:15.653Z,14.49
2018-02-18T13:11:18.244Z,15.13
2018-02-18T13:12:20.729Z,15.99
2018-02-18T13:13:23.205Z,15.91
2018-02-18T13:14:25.743Z,15.88
2018-02-18T13:15:28.239Z,17.24
2018-02-18T13:16:30.714Z,18.81
2018-02-18T13:17:33.203Z,18.98
2018-02-18T13:18:35.686Z,18.35
2018-02-18T13:19:38.182Z,18.54
2018-02-18T13:20:40.704Z,18.15
2018-02-18T13:21:43.209Z,19.93
2018-02-18T13:22:45.680Z,20.00
2018-02-18T13:23:48.177Z,21.85
2018-02-18T13:24:50.656Z,20.61
2018-02-18T13:25:53.155Z,18.86
2018-02-18T13:26:55.627Z,19.24
2018-02-18T13:27:58.103Z,20.49
2018-02-18T13:29:00.589Z,21.12
2018-02-18T13:30:03.070Z,20.68